createdAt,value
2022-12-04T00:01:23.273Z,4.04
2022-12-04T00:03:58.285Z,4.05
2022-12-04T00:06:26.147Z,4.00
2022-12-04T00:08:53.433Z,3.96
2022-12-04T00:11:23.840Z,3.97
2022-12-04T00:13:51.324Z,4.05
2022-12-04T00:16:21.161Z,4.09
2022-12-04T00:18:48.141Z,4.09
2022-12-04T00:21:16.292Z,4.05
2022-12-04T00:23:44.652Z,4.09
2022-12-04T00:26:17.939Z,4.02
2022-12-04T00:28:44.997Z,4.01
2022-12-04T00:31:15.556Z,3.95
2022-12-04T00:33:42.809Z,3.95
2022-12-04T00:36:12.250Z,3.89
2022-12-04T00:38:40.166Z,3.89
2022-12-04T00:41:14.825Z,3.89
2022-12-04T00:43:42.081Z,3.78
2022-12-04T00:46:09.576Z,3.84
2022-12-04T00:48:36.584Z,3.83
2022-12-04T00:51:08.958Z,3.82
2022-12-04T00:53:36.146Z,3.82
2022-12-04T00:56:09.433Z,3.77
2022-12-04T00:58:36.709Z,3.72
2022-12-04T01:01:13.329Z,3.81
2022-12-04T01:03:40.708Z,3.71
2022-12-04T01:06:08.217Z,3.69
2022-12-04T01:08:35.012Z,3.68
2022-12-04T01:11:06.918Z,3.66
2022-12-04T01:13:33.733Z,3.71
2022-12-04T01:16:00.454Z,3.74
2022-12-04T01:18:27.397Z,3.67
2022-12-04T01:20:54.220Z,3.73
2022-12-04T01:23:21.345Z,3.71
2022-12-04T01:25:57.576Z,3.70
2022-12-04T01:28:25.491Z,3.66
2022-12-04T01:31:02.788Z,3.68
2022-12-04T01:33:30.600Z,3.70
2022-12-04T01:35:58.913Z,3.71
2022-12-04T01:38:26.884Z,3.65
2022-12-04T01:40:54.602Z,3.64
2022-12-04T01:43:22.348Z,3.60
2022-12-04T01:45:52.870Z,3.61
2022-12-04T01:48:26.596Z,3.61
2022-12-04T01:50:59.099Z,3.58
2022-12-04T01:53:26.759Z,3.57
2022-12-04T01:55:53.918Z,3.55
2022-12-04T01:58:26.964Z,3.59
2022-12-04T02:00:58.552Z,3.62
2022-12-04T02:03:25.925Z,3.57
2022-12-04T02:05:52.598Z,3.52
2022-12-04T02:08:19.453Z,3.56
2022-12-04T02:11:03.606Z,3.53
2022-12-04T02:13:40.983Z,3.57
2022-12-04T02:16:24.646Z,3.48
2022-12-04T02:19:13.121Z,3.48
2022-12-04T02:21:45.775Z,3.51
2022-12-04T02:24:50.034Z,3.49
2022-12-04T02:27:39.062Z,3.47
2022-12-04T02:30:13.437Z,3.45
2022-12-04T02:33:03.385Z,3.43
2022-12-04T02:35:42.806Z,3.42
2022-12-04T02:38:23.541Z,3.40
2022-12-04T02:40:55.660Z,3.42
2022-12-04T02:43:46.949Z,3.42
2022-12-04T02:46:32.817Z,3.40
2022-12-04T02:49:03.415Z,3.35
2022-12-04T02:51:34.663Z,3.35
2022-12-04T02:54:19.730Z,3.35
2022-12-04T02:56:50.465Z,3.35
2022-12-04T02:59:23.448Z,3.38
2022-12-04T03:01:55.484Z,3.35
2022-12-04T03:04:26.067Z,3.29
2022-12-04T03:06:59.612Z,3.28
2022-12-04T03:09:44.508Z,3.29
2022-12-04T03:12:19.869Z,3.31
2022-12-04T03:15:01.508Z,3.31
2022-12-04T03:17:38.775Z,3.31
2022-12-04T03:20:11.099Z,3.32
2022-12-04T03:22:42.360Z,3.32
2022-12-04T03:25:09.824Z,3.39
2022-12-04T03:28:05.292Z,3.38
2022-12-04T03:30:39.651Z,3.32
2022-12-04T03:33:21.609Z,3.32
2022-12-04T03:36:08.747Z,3.27
2022-12-04T03:38:51.757Z,3.33
2022-12-04T03:41:48.045Z,3.22
2022-12-04T03:44:33.833Z,3.18
2022-12-04T03:47:30.054Z,3.15
2022-12-04T03:50:12.722Z,3.13
2022-12-04T03:52:45.625Z,3.15
2022-12-04T03:55:21.434Z,3.18
2022-12-04T03:57:50.365Z,3.14
2022-12-04T04:00:19.471Z,3.12
2022-12-04T04:02:55.929Z,3.27
2022-12-04T04:05:26.848Z,3.22
2022-12-04T04:08:18.712Z,3.27
2022-12-04T04:10:45.791Z,3.33
2022-12-04T04:13:34.120Z,3.28
2022-12-04T04:16:23.505Z,3.24
2022-12-04T04:19:10.966Z,3.20
2022-12-04T04:21:58.825Z,3.17
2022-12-04T04:24:36.204Z,3.28
2022-12-04T04:27:03.737Z,3.22
2022-12-04T04:29:30.592Z,3.13
2022-12-04T04:32:11.300Z,3.08
2022-12-04T04:34:56.305Z,3.10
2022-12-04T04:37:41.295Z,3.06
2022-12-04T04:40:22.164Z,3.04
2022-12-04T04:42:57.016Z,3.11
2022-12-04T04:45:32.226Z,3.04
2022-12-04T04:48:06.717Z,2.97
2022-12-04T04:50:34.956Z,2.95
2022-12-04T04:53:05.463Z,3.03
2022-12-04T04:55:34.924Z,3.14
2022-12-04T04:58:13.509Z,3.08
2022-12-04T05:00:47.355Z,2.95
2022-12-04T05:03:14.178Z,2.89
2022-12-04T05:05:40.903Z,2.92
2022-12-04T05:08:07.702Z,2.90
2022-12-04T05:10:34.488Z,2.90
2022-12-04T05:13:01.186Z,2.94
2022-12-04T05:15:27.876Z,2.95
2022-12-04T05:17:54.876Z,2.91
2022-12-04T05:20:21.554Z,3.01
2022-12-04T05:22:48.225Z,2.96
2022-12-04T05:25:14.918Z,2.96
2022-12-04T05:27:41.663Z,2.91
2022-12-04T05:30:10.449Z,2.81
2022-12-04T05:32:37.187Z,2.77
2022-12-04T05:35:10.577Z,2.78
2022-12-04T05:37:40.176Z,2.66
2022-12-04T05:40:10.162Z,2.64
2022-12-04T05:42:36.954Z,2.63
2022-12-04T05:45:03.841Z,2.63
2022-12-04T05:47:30.543Z,2.61
2022-12-04T05:49:58.235Z,2.62
2022-12-04T05:52:25.242Z,2.58
2022-12-04T05:54:51.864Z,2.59
2022-12-04T05:57:18.533Z,2.69
2022-12-04T05:59:45.207Z,2.62
2022-12-04T06:02:11.941Z,2.64
2022-12-04T06:04:38.690Z,2.57
2022-12-04T06:07:05.404Z,2.52
2022-12-04T06:09:32.031Z,2.49
2022-12-04T06:11:59.085Z,2.53
2022-12-04T06:14:25.911Z,2.54
2022-12-04T06:16:52.693Z,2.56
2022-12-04T06:19:21.489Z,2.52
2022-12-04T06:21:51.393Z,2.45
2022-12-04T06:24:22.005Z,2.42
2022-12-04T06:27:18.677Z,2.51
2022-12-04T06:29:36.269Z,2.47
2022-12-04T06:32:03.180Z,2.44
2022-12-04T06:34:29.948Z,2.41
2022-12-04T06:36:56.702Z,2.41
2022-12-04T06:39:23.456Z,2.38
2022-12-04T06:41:50.200Z,2.40
2022-12-04T06:44:16.874Z,2.36
2022-12-04T06:46:47.151Z,2.26
2022-12-04T06:49:14.389Z,2.31
2022-12-04T06:51:41.174Z,2.33
2022-12-04T06:54:09.475Z,2.26
2022-12-04T06:56:36.334Z,2.29
2022-12-04T06:59:04.430Z,2.27
2022-12-04T07:01:33.938Z,2.30
2022-12-04T07:04:03.884Z,2.33
2022-12-04T07:06:36.561Z,2.32
2022-12-04T07:09:16.944Z,2.33
2022-12-04T07:11:44.706Z,2.30
2022-12-04T07:14:13.206Z,2.32
2022-12-04T07:16:42.248Z,2.34
2022-12-04T07:19:11.096Z,2.39
2022-12-04T07:21:37.921Z,2.32
2022-12-04T07:24:05.115Z,2.30
2022-12-04T07:26:31.913Z,2.24
2022-12-04T07:28:59.462Z,2.28
2022-12-04T07:31:27.899Z,2.26
2022-12-04T07:33:55.231Z,2.20
2022-12-04T07:36:23.137Z,2.16
2022-12-04T07:38:50.840Z,2.17
2022-12-04T07:41:18.913Z,2.18
2022-12-04T07:43:46.047Z,2.18
2022-12-04T07:46:17.784Z,2.27
2022-12-04T07:48:45.068Z,2.31
2022-12-04T07:51:14.913Z,2.23
2022-12-04T07:53:42.134Z,2.21
2022-12-04T07:56:11.070Z,2.26
2022-12-04T07:58:38.300Z,2.32
2022-12-04T08:01:17.468Z,2.33
2022-12-04T08:03:48.325Z,2.33
2022-12-04T08:06:18.145Z,2.33
2022-12-04T08:08:45.299Z,2.27
2022-12-04T08:11:15.308Z,2.35
2022-12-04T08:13:42.234Z,2.31
2022-12-04T08:16:10.310Z,2.32
2022-12-04T08:18:37.458Z,2.31
2022-12-04T08:21:11.584Z,2.30
2022-12-04T08:23:40.525Z,2.31
2022-12-04T08:26:07.980Z,2.34
2022-12-04T08:28:35.164Z,2.45
2022-12-04T08:31:03.899Z,2.51
2022-12-04T08:33:30.745Z,2.45
2022-12-04T08:35:57.647Z,2.39
2022-12-04T08:38:24.432Z,2.36
2022-12-04T08:40:51.226Z,2.26
2022-12-04T08:43:18.094Z,2.32
2022-12-04T08:45:44.890Z,2.29
2022-12-04T08:48:11.546Z,2.28
2022-12-04T08:50:44.820Z,2.31
2022-12-04T08:53:11.513Z,2.32
2022-12-04T08:55:38.135Z,2.32
2022-12-04T08:58:04.826Z,2.27
2022-12-04T09:00:31.790Z,2.31
2022-12-04T09:02:58.539Z,2.30
2022-12-04T09:05:25.221Z,2.35
2022-12-04T09:07:52.012Z,2.37
2022-12-04T09:10:18.878Z,2.38
2022-12-04T09:12:45.546Z,2.33
2022-12-04T09:15:12.597Z,2.42
2022-12-04T09:17:39.402Z,2.41
2022-12-04T09:20:08.158Z,2.45
2022-12-04T09:23:01.757Z,2.42
2022-12-04T09:25:22.940Z,2.50
2022-12-04T09:27:49.691Z,2.65
2022-12-04T09:30:16.380Z,2.65
2022-12-04T09:32:43.077Z,2.65
2022-12-04T09:35:10.026Z,2.63
2022-12-04T09:37:36.844Z,2.59
2022-12-04T09:40:07.556Z,2.54
2022-12-04T09:42:43.644Z,2.56
2022-12-04T09:45:25.375Z,2.55
2022-12-04T09:48:01.455Z,2.56
2022-12-04T09:50:45.322Z,2.63
2022-12-04T09:53:16.048Z,2.62
2022-12-04T09:55:47.499Z,2.64
2022-12-04T09:58:21.282Z,2.59
2022-12-04T10:00:51.312Z,2.56
2022-12-04T10:03:21.165Z,2.54
2022-12-04T10:06:16.382Z,2.59
2022-12-04T10:08:46.663Z,2.64
2022-12-04T10:11:40.441Z,2.58
2022-12-04T10:14:26.125Z,2.64
2022-12-04T10:17:27.844Z,2.66
2022-12-04T10:20:13.856Z,2.63
2022-12-04T10:23:13.418Z,2.58
2022-12-04T10:25:42.174Z,2.63
2022-12-04T10:28:26.427Z,2.68
2022-12-04T10:30:55.670Z,2.74
2022-12-04T10:33:45.736Z,2.78
2022-12-04T10:36:14.110Z,2.80
2022-12-04T10:39:04.100Z,2.79
2022-12-04T10:41:33.491Z,2.81
2022-12-04T10:44:00.160Z,2.79
2022-12-04T10:46:29.292Z,2.79
2022-12-04T10:48:59.913Z,2.78
2022-12-04T10:51:26.773Z,2.90
2022-12-04T10:53:55.738Z,2.88
2022-12-04T10:56:24.969Z,2.95
2022-12-04T10:59:01.835Z,2.97
2022-12-04T11:01:33.960Z,2.99
2022-12-04T11:04:09.342Z,2.90
2022-12-04T11:06:36.245Z,2.86
2022-12-04T11:09:03.753Z,2.88
2022-12-04T11:11:35.698Z,2.83
2022-12-04T11:14:06.961Z,2.82
2022-12-04T11:16:40.477Z,2.88
2022-12-04T11:19:22.377Z,2.94
2022-12-04T11:21:50.192Z,2.88
2022-12-04T11:24:29.396Z,2.95
2022-12-04T11:26:57.831Z,2.94
2022-12-04T11:29:42.183Z,2.96
2022-12-04T11:32:19.810Z,3.06
2022-12-04T11:34:46.719Z,2.98
2022-12-04T11:37:45.125Z,3.02
2022-12-04T11:40:18.871Z,2.97
2022-12-04T11:42:58.603Z,3.04
2022-12-04T11:45:25.253Z,3.07
2022-12-04T11:47:57.328Z,3.12
2022-12-04T11:50:54.699Z,3.05
2022-12-04T11:53:39.692Z,3.00
2022-12-04T11:56:19.931Z,2.99
2022-12-04T11:58:51.706Z,3.02
2022-12-04T12:01:27.228Z,3.03
2022-12-04T12:04:10.751Z,3.06
2022-12-04T12:06:58.955Z,3.01
2022-12-04T12:09:55.739Z,2.99
2022-12-04T12:12:38.205Z,3.07
2022-12-04T12:15:26.465Z,3.16
2022-12-04T12:18:08.711Z,3.06
2022-12-04T12:20:50.408Z,3.16
2022-12-04T12:23:31.040Z,3.24
2022-12-04T12:26:16.349Z,3.16
2022-12-04T12:28:49.258Z,3.11
2022-12-04T12:31:42.172Z,3.16
2022-12-04T12:34:14.489Z,3.11
2022-12-04T12:36:45.622Z,3.07
2022-12-04T12:39:29.552Z,3.05
2022-12-04T12:42:01.194Z,3.03
2022-12-04T12:44:43.149Z,3.03
2022-12-04T12:47:17.764Z,3.04
2022-12-04T12:50:10.593Z,3.01
2022-12-04T12:52:58.875Z,3.04
2022-12-04T12:55:39.838Z,2.99
2022-12-04T12:58:24.907Z,3.02
2022-12-04T13:01:16.531Z,3.02
2022-12-04T13:03:49.076Z,3.04
2022-12-04T13:06:25.101Z,3.05
2022-12-04T13:09:25.546Z,3.08
2022-12-04T13:11:58.715Z,3.11
2022-12-04T13:14:25.844Z,3.10
2022-12-04T13:16:59.738Z,3.08
2022-12-04T13:19:34.695Z,3.07
2022-12-04T13:22:10.661Z,3.08
2022-12-04T13:24:56.529Z,3.06
2022-12-04T13:27:37.975Z,3.05
2022-12-04T13:30:21.605Z,3.11
2022-12-04T13:32:48.356Z,3.10
2022-12-04T13:35:39.966Z,3.10
2022-12-04T13:38:15.659Z,3.11
2022-12-04T13:40:51.728Z,3.14
2022-12-04T13:43:24.556Z,3.19
2022-12-04T13:45:54.266Z,3.18
2022-12-04T13:48:36.991Z,3.23
2022-12-04T13:51:14.324Z,3.22
2022-12-04T13:53:43.508Z,3.28
2022-12-04T13:56:26.404Z,3.22
2022-12-04T13:59:25.424Z,3.26
2022-12-04T14:01:57.483Z,3.24
2022-12-04T14:04:25.651Z,3.24
2022-12-04T14:06:54.332Z,3.25
2022-12-04T14:09:53.480Z,3.26
2022-12-04T14:12:26.964Z,3.30
2022-12-04T14:15:00.574Z,3.34
2022-12-04T14:17:30.887Z,3.39
2022-12-04T14:20:07.318Z,3.38
2022-12-04T14:22:37.501Z,3.37
2022-12-04T14:25:29.146Z,3.36
2022-12-04T14:27:55.997Z,3.36
2022-12-04T14:30:31.370Z,3.36
2022-12-04T14:33:19.008Z,3.34
2022-12-04T14:36:02.778Z,3.35
2022-12-04T14:38:29.748Z,3.36
2022-12-04T14:40:58.193Z,3.35
2022-12-04T14:43:28.313Z,3.35
2022-12-04T14:46:10.252Z,3.35
2022-12-04T14:48:58.281Z,3.34
2022-12-04T14:51:35.675Z,3.35
2022-12-04T14:54:17.721Z,3.37
2022-12-04T14:57:14.171Z,3.38
2022-12-04T14:59:53.599Z,3.34
2022-12-04T15:02:34.727Z,3.36
2022-12-04T15:05:02.727Z,3.34
2022-12-04T15:07:31.804Z,3.35
2022-12-04T15:10:19.428Z,3.36
2022-12-04T15:12:52.979Z,3.37
2022-12-04T15:15:26.101Z,3.40
2022-12-04T15:18:17.114Z,3.38
2022-12-04T15:20:43.833Z,3.40
2022-12-04T15:23:16.563Z,3.39
2022-12-04T15:25:51.708Z,3.44
2022-12-04T15:28:24.125Z,3.44
2022-12-04T15:30:52.732Z,3.44
2022-12-04T15:33:34.376Z,3.42
2022-12-04T15:36:05.586Z,3.46
2022-12-04T15:38:32.692Z,3.49
2022-12-04T15:41:00.834Z,3.54
2022-12-04T15:43:29.443Z,3.54
2022-12-04T15:45:57.123Z,3.53
2022-12-04T15:48:29.685Z,3.51
2022-12-04T15:51:03.639Z,3.51
2022-12-04T15:53:37.570Z,3.51
2022-12-04T15:56:08.524Z,3.51
2022-12-04T15:58:40.425Z,3.52
2022-12-04T16:01:10.701Z,3.53
2022-12-04T16:03:47.078Z,3.53
2022-12-04T16:06:24.172Z,3.54
2022-12-04T16:08:58.075Z,3.54
2022-12-04T16:11:30.766Z,3.61
2022-12-04T16:14:23.878Z,3.64
2022-12-04T16:16:52.850Z,3.60
2022-12-04T16:19:33.378Z,3.61
2022-12-04T16:22:03.602Z,3.62
2022-12-04T16:24:30.734Z,3.60
2022-12-04T16:27:00.245Z,3.58
2022-12-04T16:29:27.165Z,3.60
2022-12-04T16:31:57.170Z,3.61
2022-12-04T16:34:27.991Z,3.59
2022-12-04T16:36:54.627Z,3.62
2022-12-04T16:39:21.460Z,3.64
2022-12-04T16:41:48.209Z,3.70
2022-12-04T16:44:16.432Z,3.66
2022-12-04T16:46:43.648Z,3.69
2022-12-04T16:49:13.852Z,3.67
2022-12-04T16:51:49.643Z,3.67
2022-12-04T16:54:16.620Z,3.69
2022-12-04T16:56:46.438Z,3.70
2022-12-04T16:59:13.274Z,3.70
2022-12-04T17:01:46.545Z,3.71
2022-12-04T17:04:13.580Z,3.70
2022-12-04T17:06:40.653Z,3.72
2022-12-04T17:09:08.123Z,3.71
2022-12-04T17:11:34.806Z,3.72
2022-12-04T17:14:06.891Z,3.68
2022-12-04T17:16:38.483Z,3.73
2022-12-04T17:19:05.324Z,3.73
2022-12-04T17:21:32.098Z,3.75
2022-12-04T17:23:58.813Z,3.75
2022-12-04T17:26:26.305Z,3.79
2022-12-04T17:28:53.235Z,3.79
2022-12-04T17:31:22.789Z,3.78
2022-12-04T17:33:50.213Z,3.76
2022-12-04T17:36:25.845Z,3.74
2022-12-04T17:38:57.514Z,3.76
2022-12-04T17:41:24.256Z,3.78
2022-12-04T17:43:51.089Z,3.76
2022-12-04T17:46:21.861Z,3.76
2022-12-04T17:48:48.817Z,3.75
2022-12-04T17:51:22.816Z,3.75
2022-12-04T17:53:49.745Z,3.77
2022-12-04T17:56:19.285Z,3.75
2022-12-04T17:58:46.870Z,3.76
2022-12-04T18:01:16.904Z,3.77
2022-12-04T18:03:44.421Z,3.79
2022-12-04T18:06:17.128Z,3.80
2022-12-04T18:08:49.846Z,3.80
2022-12-04T18:11:20.522Z,3.81
2022-12-04T18:13:49.445Z,3.78
2022-12-04T18:16:16.266Z,3.79
2022-12-04T18:18:46.611Z,3.79
2022-12-04T18:21:14.524Z,3.79
2022-12-04T18:23:45.664Z,3.80
2022-12-04T18:26:14.353Z,3.79
2022-12-04T18:28:42.057Z,3.78
2022-12-04T18:31:09.869Z,3.78
2022-12-04T18:33:39.120Z,3.76
2022-12-04T18:36:06.804Z,3.75
2022-12-04T18:38:33.645Z,3.77
2022-12-04T18:41:05.908Z,3.75
2022-12-04T18:43:37.916Z,3.78
2022-12-04T18:46:08.044Z,3.75
2022-12-04T18:48:36.022Z,3.79
2022-12-04T18:51:14.536Z,3.78
2022-12-04T18:53:41.441Z,3.80
2022-12-04T18:56:08.091Z,3.79
2022-12-04T18:58:34.799Z,3.79
2022-12-04T19:01:09.480Z,3.78
2022-12-04T19:03:37.034Z,3.80
2022-12-04T19:06:04.783Z,3.82
2022-12-04T19:08:34.297Z,3.79
2022-12-04T19:11:21.533Z,3.78
2022-12-04T19:13:48.259Z,3.79
2022-12-04T19:16:17.505Z,3.78
2022-12-04T19:18:47.705Z,3.77
2022-12-04T19:21:14.912Z,3.76
2022-12-04T19:23:42.759Z,3.78
2022-12-04T19:26:09.527Z,3.76
2022-12-04T19:28:36.523Z,3.75
2022-12-04T19:31:03.643Z,3.76
2022-12-04T19:33:30.455Z,3.74
2022-12-04T19:36:03.216Z,3.75
2022-12-04T19:38:31.447Z,3.75
2022-12-04T19:41:22.953Z,3.75
2022-12-04T19:43:52.871Z,3.71
2022-12-04T19:46:26.230Z,3.73
2022-12-04T19:48:58.724Z,3.72
2022-12-04T19:51:26.035Z,3.74
2022-12-04T19:53:54.200Z,3.73
2022-12-04T19:56:24.505Z,3.74
2022-12-04T19:58:52.615Z,3.73
2022-12-04T20:01:24.083Z,3.75
2022-12-04T20:03:51.340Z,3.74
2022-12-04T20:06:20.723Z,3.71
2022-12-04T20:08:52.799Z,3.74
2022-12-04T20:11:19.611Z,3.73
2022-12-04T20:13:48.547Z,3.76
2022-12-04T20:16:18.096Z,3.76
2022-12-04T20:18:45.310Z,3.78
2022-12-04T20:21:12.989Z,3.77
2022-12-04T20:23:49.943Z,3.75
2022-12-04T20:26:26.054Z,3.77
2022-12-04T20:28:54.827Z,3.74
2022-12-04T20:31:41.760Z,3.75
2022-12-04T20:34:12.106Z,3.78
2022-12-04T20:36:41.773Z,3.76
2022-12-04T20:39:09.754Z,3.74
2022-12-04T20:41:36.716Z,3.80
2022-12-04T20:44:06.413Z,3.80
2022-12-04T20:46:38.320Z,3.80
2022-12-04T20:49:08.571Z,3.81
2022-12-04T20:51:37.840Z,3.77
2022-12-04T20:54:05.662Z,3.74
2022-12-04T20:56:37.236Z,3.74
2022-12-04T20:59:07.652Z,3.76
2022-12-04T21:01:35.472Z,3.78
2022-12-04T21:04:02.821Z,3.76
2022-12-04T21:06:38.122Z,3.75
2022-12-04T21:09:16.787Z,3.73
2022-12-04T21:11:49.360Z,3.72
2022-12-04T21:14:43.878Z,3.70
2022-12-04T21:17:16.629Z,3.71
2022-12-04T21:19:43.594Z,3.65
2022-12-04T21:22:10.279Z,3.69
2022-12-04T21:24:39.224Z,3.72
2022-12-04T21:27:09.820Z,3.68
2022-12-04T21:29:39.677Z,3.68
2022-12-04T21:32:07.242Z,3.70
2022-12-04T21:34:33.979Z,3.74
2022-12-04T21:37:00.863Z,3.74
2022-12-04T21:39:27.564Z,3.77
2022-12-04T21:42:26.606Z,3.76
2022-12-04T21:44:53.311Z,3.74
2022-12-04T21:47:20.497Z,3.74
2022-12-04T21:49:47.780Z,3.75
2022-12-04T21:52:18.581Z,3.73
2022-12-04T21:54:48.325Z,3.70
2022-12-04T21:57:15.019Z,3.70
2022-12-04T21:59:41.677Z,3.72
2022-12-04T22:02:10.018Z,3.72
2022-12-04T22:04:36.711Z,3.69
2022-12-04T22:07:03.545Z,3.71
2022-12-04T22:09:30.283Z,3.70
2022-12-04T22:11:56.940Z,3.72
2022-12-04T22:14:23.588Z,3.73
2022-12-04T22:16:51.892Z,3.77
2022-12-04T22:19:18.669Z,3.78
2022-12-04T22:21:45.491Z,3.79
2022-12-04T22:24:12.264Z,3.77
2022-12-04T22:26:39.144Z,3.75
2022-12-04T22:29:33.725Z,3.76
2022-12-04T22:31:52.944Z,3.80
2022-12-04T22:34:19.676Z,3.74
2022-12-04T22:36:48.851Z,3.73
2022-12-04T22:39:15.506Z,3.71
2022-12-04T22:41:42.185Z,3.72
2022-12-04T22:44:08.982Z,3.72
2022-12-04T22:46:35.702Z,3.66
2022-12-04T22:49:02.400Z,3.68
2022-12-04T22:51:29.236Z,3.69
2022-12-04T22:53:57.956Z,3.67
2022-12-04T22:56:30.689Z,3.66
2022-12-04T22:58:58.296Z,3.63
2022-12-04T23:01:27.856Z,3.63
2022-12-04T23:03:54.828Z,3.70
2022-12-04T23:06:23.433Z,3.68
2022-12-04T23:08:55.923Z,3.69
2022-12-04T23:11:23.868Z,3.73
2022-12-04T23:13:56.012Z,3.72
2022-12-04T23:16:24.383Z,3.67
2022-12-04T23:18:51.409Z,3.69
2022-12-04T23:21:20.116Z,3.68
2022-12-04T23:23:47.679Z,3.66
2022-12-04T23:26:17.843Z,3.66
2022-12-04T23:28:44.531Z,3.62
2022-12-04T23:31:11.504Z,3.58
2022-12-04T23:33:39.365Z,3.62
2022-12-04T23:36:07.528Z,3.59
2022-12-04T23:38:35.750Z,3.65
2022-12-04T23:41:05.438Z,3.64
2022-12-04T23:43:32.691Z,3.63
2022-12-04T23:45:59.395Z,3.64
2022-12-04T23:48:26.901Z,3.62
2022-12-04T23:50:54.032Z,3.63
2022-12-04T23:53:21.158Z,3.63
2022-12-04T23:56:09.918Z,3.66
2022-12-04T23:58:37.530Z,3.63
